sensor_id;sensor_type;location;lat;lon;timestamp;pressure;altitude;pressure_sealevel;temperature;humidity
8298;BME280;4187;42.778;23.242;2022-08-07T00:02:22;95012.09;;;22.00;100.00
8298;BME280;4187;42.778;23.242;2022-08-07T00:04:49;95013.94;;;22.00;100.00
8298;BME280;4187;42.778;23.242;2022-08-07T00:07:16;95022.22;;;21.98;100.00
8298;BME280;4187;42.778;23.242;2022-08-07T00:09:43;95024.06;;;21.98;100.00
8298;BME280;4187;42.778;23.242;2022-08-07T00:12:10;95031.53;;;21.96;100.00
8298;BME280;4187;42.778;23.242;2022-08-07T00:14:37;95023.72;;;21.94;100.00
8298;BME280;4187;42.778;23.242;2022-08-07T00:17:04;95026.16;;;21.96;100.00
8298;BME280;4187;42.778;23.242;2022-08-07T00:19:32;95023.72;;;21.94;100.00
8298;BME280;4187;42.778;23.242;2022-08-07T00:21:59;95016.09;;;21.85;100.00
8298;BME280;4187;42.778;23.242;2022-08-07T00:24:27;95028.09;;;21.89;100.00
8298;BME280;4187;42.778;23.242;2022-08-07T00:26:53;95021.66;;;21.90;100.00
8298;BME280;4187;42.778;23.242;2022-08-07T00:29:20;95018.88;;;21.78;100.00
8298;BME280;4187;42.778;23.242;2022-08-07T00:31:51;95029.97;;;21.88;100.00
8298;BME280;4187;42.778;23.242;2022-08-07T00:34:18;95030.19;;;21.87;100.00
8298;BME280;4187;42.778;23.242;2022-08-07T00:36:46;95029.38;;;21.80;100.00
8298;BME280;4187;42.778;23.242;2022-08-07T00:39:13;95025.69;;;21.74;100.00
8298;BME280;4187;42.778;23.242;2022-08-07T00:41:47;95024.88;;;21.74;100.00
8298;BME280;4187;42.778;23.242;2022-08-07T00:44:14;95024.72;;;21.69;100.00
8298;BME280;4187;42.778;23.242;2022-08-07T00:46:41;95020.84;;;21.65;100.00
8298;BME280;4187;42.778;23.242;2022-08-07T00:49:08;94899.19;;;20.83;100.00
8298;BME280;4187;42.778;23.242;2022-08-07T00:51:35;95025.84;;;21.55;100.00
8298;BME280;4187;42.778;23.242;2022-08-07T00:54:04;95020.28;;;21.56;100.00
8298;BME280;4187;42.778;23.242;2022-08-07T00:56:32;95040.78;;;21.51;100.00
8298;BME280;4187;42.778;23.242;2022-08-07T00:58:59;95035.78;;;21.23;100.00
8298;BME280;4187;42.778;23.242;2022-08-07T01:01:27;95045.78;;;21.09;100.00
8298;BME280;4187;42.778;23.242;2022-08-07T01:03:54;95030.19;;;20.86;100.00
8298;BME280;4187;42.778;23.242;2022-08-07T01:06:21;95037.47;;;20.73;100.00
8298;BME280;4187;42.778;23.242;2022-08-07T01:08:48;95032.16;;;20.60;100.00
8298;BME280;4187;42.778;23.242;2022-08-07T01:11:17;95038.38;;;20.54;100.00
8298;BME280;4187;42.778;23.242;2022-08-07T01:13:44;95043.97;;;20.46;100.00
8298;BME280;4187;42.778;23.242;2022-08-07T01:16:11;95043.13;;;20.45;100.00
8298;BME280;4187;42.778;23.242;2022-08-07T01:18:39;95046.47;;;20.41;100.00
8298;BME280;4187;42.778;23.242;2022-08-07T01:21:12;95046.28;;;20.36;100.00
8298;BME280;4187;42.778;23.242;2022-08-07T01:23:40;95050.16;;;20.40;100.00
8298;BME280;4187;42.778;23.242;2022-08-07T01:26:09;95030.19;;;20.29;100.00
8298;BME280;4187;42.778;23.242;2022-08-07T01:28:38;95043.38;;;20.44;100.00
8298;BME280;4187;42.778;23.242;2022-08-07T01:31:05;95055.06;;;20.49;100.00
8298;BME280;4187;42.778;23.242;2022-08-07T01:33:32;95059.63;;;20.49;100.00
8298;BME280;4187;42.778;23.242;2022-08-07T01:35:59;95055.28;;;20.48;100.00
8298;BME280;4187;42.778;23.242;2022-08-07T01:38:29;95053.44;;;20.42;100.00
8298;BME280;4187;42.778;23.242;2022-08-07T01:40:59;95059.25;;;20.32;100.00
8298;BME280;4187;42.778;23.242;2022-08-07T01:43:28;95065.22;;;20.27;100.00
8298;BME280;4187;42.778;23.242;2022-08-07T01:45:56;95078.25;;;20.24;100.00
8298;BME280;4187;42.778;23.242;2022-08-07T01:48:24;95087.50;;;20.21;100.00
8298;BME280;4187;42.778;23.242;2022-08-07T01:50:53;95094.09;;;20.25;100.00
8298;BME280;4187;42.778;23.242;2022-08-07T01:53:22;95099.88;;;20.36;100.00
8298;BME280;4187;42.778;23.242;2022-08-07T01:55:55;95125.22;;;20.46;100.00
8298;BME280;4187;42.778;23.242;2022-08-07T01:58:27;95096.56;;;20.40;100.00
8298;BME280;4187;42.778;23.242;2022-08-07T02:00:59;95111.97;;;20.58;100.00
8298;BME280;4187;42.778;23.242;2022-08-07T02:03:29;95113.22;;;20.62;100.00
8298;BME280;4187;42.778;23.242;2022-08-07T02:06:00;95089.91;;;20.49;100.00
8298;BME280;4187;42.778;23.242;2022-08-07T02:08:29;95132.16;;;20.73;100.00
8298;BME280;4187;42.778;23.242;2022-08-07T02:11:02;95057.00;;;20.36;100.00
8298;BME280;4187;42.778;23.242;2022-08-07T02:13:31;95112.75;;;20.78;100.00
8298;BME280;4187;42.778;23.242;2022-08-07T02:15:59;95086.81;;;20.59;100.00
8298;BME280;4187;42.778;23.242;2022-08-07T02:18:30;95089.28;;;20.67;100.00
8298;BME280;4187;42.778;23.242;2022-08-07T02:20:58;95074.03;;;20.61;100.00
8298;BME280;4187;42.778;23.242;2022-08-07T02:23:26;95064.91;;;20.68;100.00
8298;BME280;4187;42.778;23.242;2022-08-07T02:25:54;95030.09;;;20.62;100.00
8298;BME280;4187;42.778;23.242;2022-08-07T02:28:26;95078.06;;;20.90;100.00
8298;BME280;4187;42.778;23.242;2022-08-07T02:30:54;95069.34;;;20.94;100.00
8298;BME280;4187;42.778;23.242;2022-08-07T02:33:22;95066.34;;;20.77;100.00
8298;BME280;4187;42.778;23.242;2022-08-07T02:35:51;95065.78;;;20.56;100.00
8298;BME280;4187;42.778;23.242;2022-08-07T02:38:20;95078.44;;;20.36;100.00
8298;BME280;4187;42.778;23.242;2022-08-07T02:40:53;95099.66;;;20.17;100.00
8298;BME280;4187;42.778;23.242;2022-08-07T02:43:21;95098.00;;;20.16;100.00
8298;BME280;4187;42.778;23.242;2022-08-07T02:45:51;95107.72;;;20.24;100.00
8298;BME280;4187;42.778;23.242;2022-08-07T02:48:19;95107.69;;;20.31;100.00
8298;BME280;4187;42.778;23.242;2022-08-07T02:50:47;95096.56;;;20.40;100.00
8298;BME280;4187;42.778;23.242;2022-08-07T02:53:21;95090.16;;;20.41;100.00
8298;BME280;4187;42.778;23.242;2022-08-07T02:55:50;95081.53;;;20.33;100.00
8298;BME280;4187;42.778;23.242;2022-08-07T02:58:19;95099.44;;;20.45;100.00
8298;BME280;4187;42.778;23.242;2022-08-07T03:00:50;95101.47;;;20.50;100.00
8298;BME280;4187;42.778;23.242;2022-08-07T03:03:18;95096.56;;;20.34;100.00
8298;BME280;4187;42.778;23.242;2022-08-07T03:05:46;95087.72;;;20.26;100.00
8298;BME280;4187;42.778;23.242;2022-08-07T03:08:15;95076.56;;;20.23;100.00
8298;BME280;4187;42.778;23.242;2022-08-07T03:10:42;95078.22;;;20.31;100.00
8298;BME280;4187;42.778;23.242;2022-08-07T03:13:11;95085.22;;;20.32;100.00
8298;BME280;4187;42.778;23.242;2022-08-07T03:15:39;95074.94;;;20.35;100.00
8298;BME280;4187;42.778;23.242;2022-08-07T03:18:08;95056.78;;;20.37;100.00
8298;BME280;4187;42.778;23.242;2022-08-07T03:20:36;95067.63;;;20.55;100.00
8298;BME280;4187;42.778;23.242;2022-08-07T03:23:04;95064.94;;;20.62;100.00
8298;BME280;4187;42.778;23.242;2022-08-07T03:25:32;95064.91;;;20.68;100.00
8298;BME280;4187;42.778;23.242;2022-08-07T03:28:01;95062.22;;;20.68;100.00
8298;BME280;4187;42.778;23.242;2022-08-07T03:30:30;95048.50;;;20.45;100.00
8298;BME280;4187;42.778;23.242;2022-08-07T03:32:58;95076.28;;;20.57;100.00
8298;BME280;4187;42.778;23.242;2022-08-07T03:35:28;95084.19;;;20.46;100.00
8298;BME280;4187;42.778;23.242;2022-08-07T03:37:57;95081.91;;;20.43;100.00
8298;BME280;4187;42.778;23.242;2022-08-07T03:40:27;95081.31;;;20.41;100.00
8298;BME280;4187;42.778;23.242;2022-08-07T03:42:54;95089.53;;;20.46;100.00
8298;BME280;4187;42.778;23.242;2022-08-07T03:45:23;95068.75;;;20.28;100.00
8298;BME280;4187;42.778;23.242;2022-08-07T03:47:51;95082.31;;;20.40;100.00
8298;BME280;4187;42.778;23.242;2022-08-07T03:50:18;95093.47;;;20.43;100.00
8298;BME280;4187;42.778;23.242;2022-08-07T03:52:48;95090.56;;;20.45;100.00
8298;BME280;4187;42.778;23.242;2022-08-07T03:55:17;95083.94;;;20.54;100.00
8298;BME280;4187;42.778;23.242;2022-08-07T03:57:44;95084.13;;;20.59;100.00
8298;BME280;4187;42.778;23.242;2022-08-07T04:00:12;95081.22;;;20.67;100.00
8298;BME280;4187;42.778;23.242;2022-08-07T04:02:40;95086.56;;;20.73;100.00
8298;BME280;4187;42.778;23.242;2022-08-07T04:05:09;95089.81;;;20.82;100.00
8298;BME280;4187;42.778;23.242;2022-08-07T04:07:36;95097.03;;;20.88;100.00
8298;BME280;4187;42.778;23.242;2022-08-07T04:10:05;95097.19;;;21.00;100.00
8298;BME280;4187;42.778;23.242;2022-08-07T04:12:32;95094.31;;;21.08;100.00
8298;BME280;4187;42.778;23.242;2022-08-07T04:14:59;95100.69;;;21.13;100.00
8298;BME280;4187;42.778;23.242;2022-08-07T04:17:26;95099.63;;;21.14;100.00
8298;BME280;4187;42.778;23.242;2022-08-07T04:19:54;95093.22;;;21.22;100.00
8298;BME280;4187;42.778;23.242;2022-08-07T04:22:22;95089.47;;;21.23;100.00
8298;BME280;4187;42.778;23.242;2022-08-07T04:24:50;95113.94;;;21.39;100.00
8298;BME280;4187;42.778;23.242;2022-08-07T04:27:18;95108.75;;;21.44;100.00
8298;BME280;4187;42.778;23.242;2022-08-07T04:29:45;95116.97;;;21.50;100.00
8298;BME280;4187;42.778;23.242;2022-08-07T04:32:12;95115.53;;;21.54;100.00
8298;BME280;4187;42.778;23.242;2022-08-07T04:34:39;95123.91;;;21.64;100.00
8298;BME280;4187;42.778;23.242;2022-08-07T04:37:06;95125.88;;;21.81;100.00
8298;BME280;4187;42.778;23.242;2022-08-07T04:39:33;95127.50;;;21.89;100.00
8298;BME280;4187;42.778;23.242;2022-08-07T04:42:01;95103.72;;;21.86;100.00
8298;BME280;4187;42.778;23.242;2022-08-07T04:44:29;95126.56;;;22.01;100.00
8298;BME280;4187;42.778;23.242;2022-08-07T04:47:02;95127.50;;;21.89;100.00
8298;BME280;4187;42.778;23.242;2022-08-07T04:49:39;95131.03;;;21.89;100.00
8298;BME280;4187;42.778;23.242;2022-08-07T04:52:12;95126.69;;;21.82;100.00
8298;BME280;4187;42.778;23.242;2022-08-07T04:54:46;95113.59;;;21.61;100.00
8298;BME280;4187;42.778;23.242;2022-08-07T04:57:25;95132.06;;;21.82;100.00
8298;BME280;4187;42.778;23.242;2022-08-07T05:00:00;95137.44;;;21.82;100.00
8298;BME280;4187;42.778;23.242;2022-08-07T05:02:31;95135.38;;;21.84;100.00
8298;BME280;4187;42.778;23.242;2022-08-07T05:05:03;95138.00;;;21.97;100.00
8298;BME280;4187;42.778;23.242;2022-08-07T05:07:35;95145.78;;;22.05;100.00
8298;BME280;4187;42.778;23.242;2022-08-07T05:10:08;95148.78;;;22.15;100.00
8298;BME280;4187;42.778;23.242;2022-08-07T05:12:39;95142.94;;;22.25;100.00
8298;BME280;4187;42.778;23.242;2022-08-07T05:15:15;95156.19;;;22.44;100.00
8298;BME280;4187;42.778;23.242;2022-08-07T05:17:45;95149.19;;;22.68;100.00
8298;BME280;4187;42.778;23.242;2022-08-07T05:20:16;95157.63;;;22.90;100.00
8298;BME280;4187;42.778;23.242;2022-08-07T05:22:48;95155.16;;;23.06;100.00
8298;BME280;4187;42.778;23.242;2022-08-07T05:25:18;95163.47;;;23.23;100.00
8298;BME280;4187;42.778;23.242;2022-08-07T05:27:48;95168.84;;;23.41;100.00
8298;BME280;4187;42.778;23.242;2022-08-07T05:30:17;95160.47;;;23.49;100.00
8298;BME280;4187;42.778;23.242;2022-08-07T05:32:45;95169.06;;;23.58;100.00
8298;BME280;4187;42.778;23.242;2022-08-07T05:35:14;95172.25;;;23.66;100.00
8298;BME280;4187;42.778;23.242;2022-08-07T05:37:43;95173.28;;;23.84;100.00
8298;BME280;4187;42.778;23.242;2022-08-07T05:40:12;95174.25;;;24.01;100.00
8298;BME280;4187;42.778;23.242;2022-08-07T05:42:39;95177.97;;;24.18;100.00
8298;BME280;4187;42.778;23.242;2022-08-07T05:45:07;95182.94;;;24.32;100.00
8298;BME280;4187;42.778;23.242;2022-08-07T05:47:36;95183.56;;;24.46;100.00
8298;BME280;4187;42.778;23.242;2022-08-07T05:50:04;95186.38;;;24.51;100.00
8298;BME280;4187;42.778;23.242;2022-08-07T05:52:31;95191.63;;;24.58;100.00
8298;BME280;4187;42.778;23.242;2022-08-07T05:54:58;95196.44;;;24.56;100.00
8298;BME280;4187;42.778;23.242;2022-08-07T05:57:25;95190.81;;;24.69;100.00
8298;BME280;4187;42.778;23.242;2022-08-07T05:59:53;95165.63;;;24.52;100.00
8298;BME280;4187;42.778;23.242;2022-08-07T06:02:22;95202.97;;;24.89;100.00
8298;BME280;4187;42.778;23.242;2022-08-07T06:04:56;95219.41;;;25.00;100.00
8298;BME280;4187;42.778;23.242;2022-08-07T06:07:26;95187.94;;;24.93;100.00
8298;BME280;4187;42.778;23.242;2022-08-07T06:09:53;95216.81;;;25.16;100.00
8298;BME280;4187;42.778;23.242;2022-08-07T06:12:21;95195.56;;;25.08;100.00
8298;BME280;4187;42.778;23.242;2022-08-07T06:14:48;95211.59;;;25.38;100.00
8298;BME280;4187;42.778;23.242;2022-08-07T06:17:16;95213.34;;;25.55;100.00
8298;BME280;4187;42.778;23.242;2022-08-07T06:19:46;95197.50;;;25.59;96.92
8298;BME280;4187;42.778;23.242;2022-08-07T06:22:15;95219.38;;;25.86;95.99
8298;BME280;4187;42.778;23.242;2022-08-07T06:24:42;95215.66;;;26.03;95.73
8298;BME280;4187;42.778;23.242;2022-08-07T06:27:09;95220.91;;;26.22;94.60
8298;BME280;4187;42.778;23.242;2022-08-07T06:29:36;95221.84;;;26.44;94.86
8298;BME280;4187;42.778;23.242;2022-08-07T06:32:03;95226.34;;;26.55;93.02
8298;BME280;4187;42.778;23.242;2022-08-07T06:34:30;95216.94;;;26.74;92.08
8298;BME280;4187;42.778;23.242;2022-08-07T06:36:57;95218.13;;;26.95;92.59
8298;BME280;4187;42.778;23.242;2022-08-07T06:39:25;95187.00;;;26.97;90.03
8298;BME280;4187;42.778;23.242;2022-08-07T06:41:56;95213.22;;;27.30;89.47
8298;BME280;4187;42.778;23.242;2022-08-07T06:44:27;95179.91;;;27.13;89.67
8298;BME280;4187;42.778;23.242;2022-08-07T06:46:55;95204.31;;;27.35;91.34
8298;BME280;4187;42.778;23.242;2022-08-07T06:49:22;95205.88;;;27.47;88.34
8298;BME280;4187;42.778;23.242;2022-08-07T06:51:49;95212.41;;;27.68;89.53
8298;BME280;4187;42.778;23.242;2022-08-07T06:54:19;95214.94;;;27.79;88.58
8298;BME280;4187;42.778;23.242;2022-08-07T06:56:49;95211.44;;;28.01;90.07
8298;BME280;4187;42.778;23.242;2022-08-07T06:59:19;95220.22;;;28.08;83.41
8298;BME280;4187;42.778;23.242;2022-08-07T07:01:48;95218.41;;;28.18;84.95
8298;BME280;4187;42.778;23.242;2022-08-07T07:04:17;95223.75;;;28.35;82.79
8298;BME280;4187;42.778;23.242;2022-08-07T07:06:44;95214.22;;;28.32;82.67
8298;BME280;4187;42.778;23.242;2022-08-07T07:09:18;95217.09;;;28.21;83.70
8298;BME280;4187;42.778;23.242;2022-08-07T07:11:56;95221.22;;;28.28;84.97
8298;BME280;4187;42.778;23.242;2022-08-07T07:14:27;95212.63;;;28.36;84.21
8298;BME280;4187;42.778;23.242;2022-08-07T07:16:57;95200.75;;;28.42;83.00
8298;BME280;4187;42.778;23.242;2022-08-07T07:19:29;95211.50;;;28.59;81.67
8298;BME280;4187;42.778;23.242;2022-08-07T07:21:59;95218.22;;;28.78;84.72
8298;BME280;4187;42.778;23.242;2022-08-07T07:24:26;95221.00;;;28.88;78.39
8298;BME280;4187;42.778;23.242;2022-08-07T07:26:57;95158.31;;;28.63;80.19
8298;BME280;4187;42.778;23.242;2022-08-07T07:29:29;95227.22;;;29.21;75.94
8298;BME280;4187;42.778;23.242;2022-08-07T07:32:01;95219.41;;;29.29;76.44
8298;BME280;4187;42.778;23.242;2022-08-07T07:34:29;95219.25;;;29.46;76.45
8298;BME280;4187;42.778;23.242;2022-08-07T07:37:02;95228.31;;;29.67;78.04
8298;BME280;4187;42.778;23.242;2022-08-07T07:39:30;95224.06;;;29.81;78.21
8298;BME280;4187;42.778;23.242;2022-08-07T07:41:59;95227.44;;;30.03;76.97
8298;BME280;4187;42.778;23.242;2022-08-07T07:44:33;95212.16;;;30.02;75.07
8298;BME280;4187;42.778;23.242;2022-08-07T07:47:02;95221.72;;;30.14;72.59
8298;BME280;4187;42.778;23.242;2022-08-07T07:49:33;95196.97;;;30.06;74.44
8298;BME280;4187;42.778;23.242;2022-08-07T07:52:01;95214.38;;;30.15;72.75
8298;BME280;4187;42.778;23.242;2022-08-07T07:54:29;95227.47;;;30.23;71.94
8298;BME280;4187;42.778;23.242;2022-08-07T07:56:59;95233.22;;;30.27;72.34
8298;BME280;4187;42.778;23.242;2022-08-07T07:59:27;95232.44;;;30.36;72.06
8298;BME280;4187;42.778;23.242;2022-08-07T08:01:55;95221.28;;;30.38;73.30
8298;BME280;4187;42.778;23.242;2022-08-07T08:04:25;95172.47;;;30.11;71.25
8298;BME280;4187;42.778;23.242;2022-08-07T08:06:54;95218.31;;;30.49;71.49
8298;BME280;4187;42.778;23.242;2022-08-07T08:09:24;95234.66;;;30.49;72.81
8298;BME280;4187;42.778;23.242;2022-08-07T08:11:53;95222.13;;;30.53;70.76
8298;BME280;4187;42.778;23.242;2022-08-07T08:14:22;95230.84;;;30.60;69.40
8298;BME280;4187;42.778;23.242;2022-08-07T08:16:52;95230.34;;;30.68;71.38
8298;BME280;4187;42.778;23.242;2022-08-07T08:19:25;95235.25;;;30.87;71.50
8298;BME280;4187;42.778;23.242;2022-08-07T08:21:54;95227.63;;;30.94;70.54
8298;BME280;4187;42.778;23.242;2022-08-07T08:24:42;95231.44;;;31.08;69.96
8298;BME280;4187;42.778;23.242;2022-08-07T08:27:30;95225.44;;;31.21;68.65
8298;BME280;4187;42.778;23.242;2022-08-07T08:30:02;95229.78;;;31.27;66.96
8298;BME280;4187;42.778;23.242;2022-08-07T08:32:34;95225.41;;;31.26;68.89
8298;BME280;4187;42.778;23.242;2022-08-07T08:35:02;95224.63;;;31.30;67.28
8298;BME280;4187;42.778;23.242;2022-08-07T08:37:30;95240.69;;;31.47;67.33
8298;BME280;4187;42.778;23.242;2022-08-07T08:39:58;95228.94;;;31.36;66.55
8298;BME280;4187;42.778;23.242;2022-08-07T08:42:31;95234.69;;;31.40;66.54
8298;BME280;4187;42.778;23.242;2022-08-07T08:45:09;95243.41;;;31.47;66.69
8298;BME280;4187;42.778;23.242;2022-08-07T08:47:42;95244.47;;;31.61;69.09
8298;BME280;4187;42.778;23.242;2022-08-07T08:50:14;95244.72;;;31.70;67.67
8298;BME280;4187;42.778;23.242;2022-08-07T08:52:49;95217.72;;;31.73;66.64
8298;BME280;4187;42.778;23.242;2022-08-07T08:55:21;95238.06;;;31.96;66.63
8298;BME280;4187;42.778;23.242;2022-08-07T08:57:57;95234.78;;;32.09;64.98
8298;BME280;4187;42.778;23.242;2022-08-07T09:00:29;95240.44;;;32.23;64.90
8298;BME280;4187;42.778;23.242;2022-08-07T09:03:00;95232.75;;;32.35;64.07
8298;BME280;4187;42.778;23.242;2022-08-07T09:05:33;95232.16;;;32.43;63.33
8298;BME280;4187;42.778;23.242;2022-08-07T09:08:18;95222.09;;;32.38;62.30
8298;BME280;4187;42.778;23.242;2022-08-07T09:10:59;95228.03;;;32.45;64.19
8298;BME280;4187;42.778;23.242;2022-08-07T09:13:33;95231.81;;;32.60;60.24
8298;BME280;4187;42.778;23.242;2022-08-07T09:16:07;95206.44;;;32.49;57.53
8298;BME280;4187;42.778;23.242;2022-08-07T09:18:51;95225.31;;;32.45;58.91
8298;BME280;4187;42.778;23.242;2022-08-07T09:21:30;95213.06;;;32.38;61.86
8298;BME280;4187;42.778;23.242;2022-08-07T09:24:03;95221.53;;;32.36;58.03
8298;BME280;4187;42.778;23.242;2022-08-07T09:26:38;95216.63;;;32.38;59.91
8298;BME280;4187;42.778;23.242;2022-08-07T09:29:23;95160.53;;;32.07;55.24
8298;BME280;4187;42.778;23.242;2022-08-07T09:32:00;95197.75;;;32.37;59.23
8298;BME280;4187;42.778;23.242;2022-08-07T09:34:31;95223.97;;;32.43;61.32
8298;BME280;4187;42.778;23.242;2022-08-07T09:37:06;95222.56;;;32.45;58.08
8298;BME280;4187;42.778;23.242;2022-08-07T09:39:57;95219.84;;;32.45;59.17
8298;BME280;4187;42.778;23.242;2022-08-07T09:42:44;95209.72;;;32.46;57.38
8298;BME280;4187;42.778;23.242;2022-08-07T09:45:17;95187.34;;;32.44;58.03
8298;BME280;4187;42.778;23.242;2022-08-07T09:47:58;95206.91;;;32.61;60.02
8298;BME280;4187;42.778;23.242;2022-08-07T09:50:34;95209.59;;;32.71;55.52
8298;BME280;4187;42.778;23.242;2022-08-07T09:53:06;95146.84;;;32.51;55.21
8298;BME280;4187;42.778;23.242;2022-08-07T09:55:48;95202.88;;;32.92;57.81
8298;BME280;4187;42.778;23.242;2022-08-07T09:58:55;95196.75;;;33.05;56.54
8298;BME280;4187;42.778;23.242;2022-08-07T10:01:35;95204.00;;;33.20;54.66
8298;BME280;4187;42.778;23.242;2022-08-07T10:04:23;95200.94;;;33.27;55.78
8298;BME280;4187;42.778;23.242;2022-08-07T10:07:16;95201.13;;;33.35;54.55
8298;BME280;4187;42.778;23.242;2022-08-07T10:10:02;95201.25;;;33.25;55.01
8298;BME280;4187;42.778;23.242;2022-08-07T10:12:46;95204.19;;;32.61;55.24
8298;BME280;4187;42.778;23.242;2022-08-07T10:15:28;95176.84;;;32.22;57.74
8298;BME280;4187;42.778;23.242;2022-08-07T10:18:21;95192.78;;;32.49;58.70
8298;BME280;4187;42.778;23.242;2022-08-07T10:21:07;95194.94;;;32.52;57.98
8298;BME280;4187;42.778;23.242;2022-08-07T10:23:57;95202.31;;;32.57;58.14
8298;BME280;4187;42.778;23.242;2022-08-07T10:26:35;95215.06;;;32.66;57.78
8298;BME280;4187;42.778;23.242;2022-08-07T10:29:22;95209.00;;;32.79;57.40
8298;BME280;4187;42.778;23.242;2022-08-07T10:31:59;95202.81;;;32.97;57.60
8298;BME280;4187;42.778;23.242;2022-08-07T10:34:41;95199.41;;;33.16;55.23
8298;BME280;4187;42.778;23.242;2022-08-07T10:37:27;95206.50;;;33.17;55.81
8298;BME280;4187;42.778;23.242;2022-08-07T10:40:03;95200.41;;;33.25;56.11
8298;BME280;4187;42.778;23.242;2022-08-07T10:42:35;95198.09;;;33.37;56.05
8298;BME280;4187;42.778;23.242;2022-08-07T10:45:14;95203.88;;;33.35;55.75
8298;BME280;4187;42.778;23.242;2022-08-07T10:47:46;95206.25;;;33.42;51.52
8298;BME280;4187;42.778;23.242;2022-08-07T10:50:21;95195.47;;;33.50;47.46
8298;BME280;4187;42.778;23.242;2022-08-07T10:52:59;95210.38;;;33.39;47.87
8298;BME280;4187;42.778;23.242;2022-08-07T10:55:30;95204.06;;;33.44;49.69
8298;BME280;4187;42.778;23.242;2022-08-07T10:58:07;95209.47;;;33.49;53.06
8298;BME280;4187;42.778;23.242;2022-08-07T11:00:45;95183.44;;;33.28;50.75
8298;BME280;4187;42.778;23.242;2022-08-07T11:03:22;95193.31;;;33.24;52.76
8298;BME280;4187;42.778;23.242;2022-08-07T11:05:54;95204.13;;;33.34;55.98
8298;BME280;4187;42.778;23.242;2022-08-07T11:08:31;95169.56;;;33.19;54.42
8298;BME280;4187;42.778;23.242;2022-08-07T11:11:06;95180.78;;;33.18;54.17
8298;BME280;4187;42.778;23.242;2022-08-07T11:13:38;95171.84;;;33.07;53.94
8298;BME280;4187;42.778;23.242;2022-08-07T11:16:21;95177.00;;;33.14;57.12
8298;BME280;4187;42.778;23.242;2022-08-07T11:18:54;95166.63;;;33.10;56.70
8298;BME280;4187;42.778;23.242;2022-08-07T11:21:30;95158.72;;;33.09;55.78
8298;BME280;4187;42.778;23.242;2022-08-07T11:24:07;95121.56;;;33.03;54.22
8298;BME280;4187;42.778;23.242;2022-08-07T11:26:42;95137.56;;;33.20;54.96
8298;BME280;4187;42.778;23.242;2022-08-07T11:29:17;95149.41;;;33.34;52.08
8298;BME280;4187;42.778;23.242;2022-08-07T11:31:52;95151.75;;;33.22;54.16
8298;BME280;4187;42.778;23.242;2022-08-07T11:34:26;95155.38;;;33.17;52.48
8298;BME280;4187;42.778;23.242;2022-08-07T11:37:01;95164.03;;;32.90;54.02
8298;BME280;4187;42.778;23.242;2022-08-07T11:39:57;95152.31;;;32.56;56.48
8298;BME280;4187;42.778;23.242;2022-08-07T11:42:51;95125.06;;;32.02;57.97
8298;BME280;4187;42.778;23.242;2022-08-07T11:45:29;95155.28;;;32.16;59.63
8298;BME280;4187;42.778;23.242;2022-08-07T11:48:23;95165.06;;;32.27;60.51
8298;BME280;4187;42.778;23.242;2022-08-07T11:51:02;95173.66;;;32.49;60.84
8298;BME280;4187;42.778;23.242;2022-08-07T11:53:41;95166.47;;;32.63;61.00
8298;BME280;4187;42.778;23.242;2022-08-07T11:56:31;95175.38;;;32.79;63.13
8298;BME280;4187;42.778;23.242;2022-08-07T11:59:09;95167.38;;;32.82;59.50
8298;BME280;4187;42.778;23.242;2022-08-07T12:01:47;95176.81;;;32.66;59.48
8298;BME280;4187;42.778;23.242;2022-08-07T12:04:33;95149.41;;;32.37;57.82
8298;BME280;4187;42.778;23.242;2022-08-07T12:07:10;95171.31;;;32.32;57.74
8298;BME280;4187;42.778;23.242;2022-08-07T12:09:44;95166.53;;;32.04;56.80
8298;BME280;4187;42.778;23.242;2022-08-07T12:12:18;95163.59;;;32.01;57.59
8298;BME280;4187;42.778;23.242;2022-08-07T12:14:57;95169.38;;;31.84;59.20
8298;BME280;4187;42.778;23.242;2022-08-07T12:17:31;95170.00;;;31.66;59.61
8298;BME280;4187;42.778;23.242;2022-08-07T12:20:05;95168.63;;;31.58;60.43
8298;BME280;4187;42.778;23.242;2022-08-07T12:22:39;95159.66;;;31.53;58.99
8298;BME280;4187;42.778;23.242;2022-08-07T12:25:12;95153.38;;;31.57;61.22
8298;BME280;4187;42.778;23.242;2022-08-07T12:28:06;95153.34;;;31.62;62.10
8298;BME280;4187;42.778;23.242;2022-08-07T12:30:39;95113.16;;;31.09;65.94
8298;BME280;4187;42.778;23.242;2022-08-07T12:33:11;95146.97;;;30.98;67.14
8298;BME280;4187;42.778;23.242;2022-08-07T12:35:44;95139.84;;;30.87;68.72
8298;BME280;4187;42.778;23.242;2022-08-07T12:38:12;95139.34;;;30.95;69.72
8298;BME280;4187;42.778;23.242;2022-08-07T12:40:43;95132.22;;;31.04;70.04
8298;BME280;4187;42.778;23.242;2022-08-07T12:43:14;95135.22;;;31.02;68.88
8298;BME280;4187;42.778;23.242;2022-08-07T12:45:46;95143.66;;;30.91;69.69
8298;BME280;4187;42.778;23.242;2022-08-07T12:48:26;95139.88;;;30.76;71.30
8298;BME280;4187;42.778;23.242;2022-08-07T12:51:03;95139.03;;;30.81;67.94
8298;BME280;4187;42.778;23.242;2022-08-07T12:53:39;95130.31;;;30.69;65.34
8298;BME280;4187;42.778;23.242;2022-08-07T12:56:13;95148.03;;;30.61;66.04
8298;BME280;4187;42.778;23.242;2022-08-07T12:58:46;95149.41;;;30.54;66.49
8298;BME280;4187;42.778;23.242;2022-08-07T13:01:21;95137.16;;;30.51;67.74
8298;BME280;4187;42.778;23.242;2022-08-07T13:04:03;95136.56;;;30.29;71.19
8298;BME280;4187;42.778;23.242;2022-08-07T13:10:02;95132.25;;;30.48;75.29
8298;BME280;4187;42.778;23.242;2022-08-07T13:12:43;95131.44;;;30.68;68.34
8298;BME280;4187;42.778;23.242;2022-08-07T13:15:23;95127.88;;;30.77;69.28
8298;BME280;4187;42.778;23.242;2022-08-07T13:17:58;95108.53;;;30.74;68.37
8298;BME280;4187;42.778;23.242;2022-08-07T13:20:34;95128.97;;;30.97;68.26
8298;BME280;4187;42.778;23.242;2022-08-07T13:23:08;95104.97;;;30.99;70.27
8298;BME280;4187;42.778;23.242;2022-08-07T13:25:41;95128.34;;;31.30;68.49
8298;BME280;4187;42.778;23.242;2022-08-07T13:28:13;95103.25;;;31.33;69.62
8298;BME280;4187;42.778;23.242;2022-08-07T13:30:47;95062.41;;;31.13;63.82
8298;BME280;4187;42.778;23.242;2022-08-07T13:33:23;95128.59;;;31.38;63.72
8298;BME280;4187;42.778;23.242;2022-08-07T13:35:56;95126.13;;;31.52;63.64